createdAt,value
2022-12-25T00:01:41.135Z,25.50
2022-12-25T00:04:13.815Z,20.00
2022-12-25T00:06:46.610Z,20.50
2022-12-25T00:09:19.423Z,18.30
2022-12-25T00:11:51.734Z,15.60
2022-12-25T00:14:24.171Z,22.00
2022-12-25T00:16:56.783Z,16.20
2022-12-25T00:19:29.433Z,18.90
2022-12-25T00:22:01.741Z,33.20
2022-12-25T00:24:34.299Z,27.80
2022-12-25T00:27:06.826Z,25.00
2022-12-25T00:29:39.660Z,16.80
2022-12-25T00:32:12.254Z,23.80
2022-12-25T00:34:45.211Z,24.70
2022-12-25T00:37:17.787Z,56.10
2022-12-25T00:39:50.880Z,54.20
2022-12-25T00:42:24.169Z,45.90
2022-12-25T00:44:56.647Z,40.90
2022-12-25T00:47:29.665Z,35.30
2022-12-25T00:50:02.214Z,24.60
2022-12-25T00:52:34.911Z,26.30
2022-12-25T00:55:08.603Z,21.70
2022-12-25T00:57:41.599Z,23.00
2022-12-25T01:00:15.969Z,26.40
2022-12-25T01:02:48.688Z,24.10
2022-12-25T01:05:21.757Z,22.70
2022-12-25T01:07:54.041Z,20.60
2022-12-25T01:10:26.290Z,23.00
2022-12-25T01:12:58.894Z,17.00
2022-12-25T01:15:31.674Z,17.20
2022-12-25T01:18:07.933Z,19.90
2022-12-25T01:20:41.875Z,21.50
2022-12-25T01:23:14.904Z,20.10
2022-12-25T01:25:47.254Z,18.60
2022-12-25T01:28:20.471Z,24.70
2022-12-25T01:30:53.348Z,37.40
2022-12-25T01:33:26.400Z,29.80
2022-12-25T01:35:59.102Z,44.60
2022-12-25T01:38:31.858Z,36.90
2022-12-25T01:41:04.886Z,35.80
2022-12-25T01:43:38.300Z,36.80
2022-12-25T01:46:11.418Z,37.30
2022-12-25T01:48:44.080Z,35.70
2022-12-25T01:51:24.075Z,27.50
2022-12-25T01:54:01.147Z,26.50
2022-12-25T01:56:35.770Z,24.90
2022-12-25T01:59:10.807Z,26.00
2022-12-25T02:01:43.789Z,26.00
2022-12-25T02:04:23.648Z,44.70
2022-12-25T02:06:56.123Z,53.00
2022-12-25T02:09:28.577Z,51.70
2022-12-25T02:12:01.816Z,42.80
2022-12-25T02:14:36.632Z,28.90
2022-12-25T02:17:18.599Z,33.60
2022-12-25T02:20:17.796Z,27.70
2022-12-25T02:23:06.221Z,28.10
2022-12-25T02:25:51.267Z,20.00
2022-12-25T02:28:28.839Z,20.10
2022-12-25T02:31:09.911Z,21.10
2022-12-25T02:34:06.699Z,15.70
2022-12-25T02:36:47.220Z,23.30
2022-12-25T02:39:43.448Z,25.30
2022-12-25T02:42:22.677Z,23.70
2022-12-25T02:45:21.218Z,23.00
2022-12-25T02:48:16.724Z,31.70
2022-12-25T02:51:07.843Z,22.60
2022-12-25T02:54:00.767Z,27.00
2022-12-25T02:56:53.719Z,25.70
2022-12-25T02:59:46.480Z,29.70
2022-12-25T03:02:38.839Z,23.80
2022-12-25T03:05:33.717Z,26.00
2022-12-25T03:13:36.911Z,31.20
2022-12-25T03:16:27.497Z,25.10
2022-12-25T03:19:00.968Z,27.60
2022-12-25T03:21:50.890Z,30.50
2022-12-25T03:24:42.010Z,32.20
2022-12-25T03:27:14.785Z,30.80
2022-12-25T03:30:05.461Z,27.10
2022-12-25T03:32:44.706Z,22.80
2022-12-25T03:35:27.676Z,25.70
2022-12-25T03:38:39.889Z,22.50
2022-12-25T03:41:38.772Z,23.50
2022-12-25T03:44:39.387Z,23.20
2022-12-25T03:47:35.782Z,29.60
2022-12-25T03:50:34.560Z,25.10
2022-12-25T03:53:29.822Z,21.00
2022-12-25T03:56:20.480Z,21.50
2022-12-25T03:59:23.127Z,25.60
2022-12-25T04:02:14.209Z,25.50
2022-12-25T04:05:04.765Z,23.40
2022-12-25T04:07:55.529Z,25.30
2022-12-25T04:10:53.956Z,21.00
2022-12-25T04:13:40.103Z,24.40
2022-12-25T04:16:30.219Z,22.50
2022-12-25T04:19:20.816Z,26.30
2022-12-25T04:22:11.463Z,25.90
2022-12-25T04:25:02.201Z,26.90
2022-12-25T04:27:52.949Z,23.50
2022-12-25T04:30:43.902Z,64.90
2022-12-25T04:33:33.808Z,74.10
2022-12-25T04:36:10.342Z,29.80
2022-12-25T04:38:44.106Z,28.10
2022-12-25T04:41:17.724Z,25.30
2022-12-25T04:43:50.232Z,23.90
2022-12-25T04:46:23.020Z,20.60
2022-12-25T04:48:55.716Z,21.20
2022-12-25T04:51:28.862Z,23.40
2022-12-25T04:54:01.441Z,25.90
2022-12-25T04:56:38.590Z,31.00
2022-12-25T04:59:14.641Z,29.50
2022-12-25T05:01:47.811Z,25.90
2022-12-25T05:04:20.588Z,26.30
2022-12-25T05:06:53.078Z,25.30
2022-12-25T05:09:26.054Z,24.10
2022-12-25T05:11:58.951Z,21.70
2022-12-25T05:14:32.425Z,22.40
2022-12-25T05:17:05.790Z,16.40
2022-12-25T05:19:38.592Z,16.60
2022-12-25T05:22:11.163Z,21.90
2022-12-25T05:24:43.850Z,20.70
2022-12-25T05:27:17.174Z,21.80
2022-12-25T05:29:50.036Z,19.20
2022-12-25T05:32:22.761Z,16.20
2022-12-25T05:34:55.193Z,19.60
2022-12-25T05:37:28.451Z,18.10
2022-12-25T05:40:00.818Z,21.70
2022-12-25T05:42:33.317Z,19.50
2022-12-25T05:45:06.615Z,18.70
2022-12-25T05:47:39.313Z,18.40
2022-12-25T05:50:12.723Z,21.80
2022-12-25T05:52:45.690Z,21.10
2022-12-25T05:55:18.589Z,21.70
2022-12-25T05:57:51.374Z,16.60
2022-12-25T06:00:24.763Z,18.50
2022-12-25T06:02:57.605Z,18.90
2022-12-25T06:05:31.248Z,22.30
2022-12-25T06:08:04.112Z,21.60
2022-12-25T06:10:37.533Z,27.60
2022-12-25T06:13:10.215Z,29.30
2022-12-25T06:15:44.023Z,29.70
2022-12-25T06:18:16.769Z,27.40
2022-12-25T06:20:49.687Z,22.60
2022-12-25T06:23:22.427Z,19.80
2022-12-25T06:25:55.200Z,21.00
2022-12-25T06:28:27.934Z,21.90
2022-12-25T06:31:00.821Z,25.60
2022-12-25T06:33:34.089Z,19.40
2022-12-25T06:36:10.542Z,30.10
2022-12-25T06:38:43.365Z,27.90
2022-12-25T06:41:18.529Z,24.60
2022-12-25T06:43:53.654Z,20.80
2022-12-25T06:46:29.294Z,21.40
2022-12-25T06:49:03.572Z,18.80
2022-12-25T06:51:36.508Z,16.20
2022-12-25T06:54:45.454Z,18.00
2022-12-25T06:58:29.553Z,15.60
2022-12-25T07:05:58.528Z,22.40
2022-12-25T07:08:31.126Z,17.90
2022-12-25T07:11:56.104Z,20.20
2022-12-25T07:15:18.158Z,18.80
2022-12-25T07:18:42.033Z,20.90
2022-12-25T07:22:19.409Z,17.30
2022-12-25T07:25:20.539Z,27.10
2022-12-25T07:28:44.623Z,25.20
2022-12-25T07:36:54.543Z,27.20
2022-12-25T07:44:22.950Z,44.80
2022-12-25T07:46:55.346Z,39.90
2022-12-25T07:54:57.814Z,32.00
2022-12-25T07:57:39.308Z,33.90
2022-12-25T08:00:18.455Z,36.10
2022-12-25T08:03:17.291Z,48.90
2022-12-25T08:05:53.106Z,43.80
2022-12-25T08:09:37.841Z,51.90
2022-12-25T08:12:17.625Z,36.60
2022-12-25T08:15:17.708Z,42.60
2022-12-25T08:17:54.849Z,73.30
2022-12-25T08:24:58.538Z,114.30
2022-12-25T08:27:59.075Z,72.80
2022-12-25T08:31:46.640Z,96.10
2022-12-25T08:34:19.655Z,79.90
2022-12-25T08:41:50.162Z,133.70
2022-12-25T08:45:35.302Z,107.20
2022-12-25T08:48:11.610Z,125.70
2022-12-25T08:50:49.550Z,114.00
2022-12-25T08:53:50.836Z,67.20
2022-12-25T08:56:53.358Z,67.30
2022-12-25T09:03:41.080Z,58.30
2022-12-25T09:06:37.756Z,72.70
2022-12-25T09:18:21.475Z,39.20
2022-12-25T09:22:07.760Z,42.20
2022-12-25T09:24:44.067Z,31.70
2022-12-25T09:28:28.890Z,31.60
2022-12-25T09:31:26.219Z,23.90
2022-12-25T09:34:47.149Z,25.70
2022-12-25T09:37:20.134Z,20.50
2022-12-25T09:39:52.863Z,25.00
2022-12-25T09:42:37.606Z,24.40
2022-12-25T09:45:16.821Z,27.70
2022-12-25T09:49:02.977Z,29.60
2022-12-25T09:51:42.330Z,26.10
2022-12-25T09:54:51.164Z,24.40
2022-12-25T09:57:26.344Z,31.50
2022-12-25T09:59:59.437Z,29.50
2022-12-25T10:03:14.210Z,26.60
2022-12-25T10:06:22.497Z,27.20
2022-12-25T10:09:42.039Z,30.00
2022-12-25T10:12:33.569Z,26.60
2022-12-25T10:24:05.503Z,26.40
2022-12-25T10:26:38.435Z,28.60
2022-12-25T10:29:19.996Z,35.10
2022-12-25T10:32:22.625Z,27.80
2022-12-25T10:35:00.206Z,31.60
2022-12-25T10:37:36.728Z,22.30
2022-12-25T10:40:43.125Z,21.00
2022-12-25T10:44:32.969Z,25.40
2022-12-25T10:47:07.095Z,23.60
2022-12-25T10:50:28.986Z,26.50
2022-12-25T10:53:08.164Z,18.60
2022-12-25T10:55:44.168Z,25.80
2022-12-25T10:59:14.090Z,20.10
2022-12-25T11:06:25.614Z,22.70
2022-12-25T11:10:10.212Z,21.20
2022-12-25T11:13:56.224Z,20.30
2022-12-25T11:16:47.754Z,19.70
2022-12-25T11:19:33.890Z,20.80
2022-12-25T11:22:32.970Z,19.30
2022-12-25T11:25:32.405Z,16.00
2022-12-25T11:29:26.071Z,17.50
2022-12-25T11:32:26.816Z,22.30
2022-12-25T11:38:43.291Z,25.90
2022-12-25T11:41:20.880Z,30.50
2022-12-25T11:43:59.418Z,22.40
2022-12-25T11:46:42.882Z,22.40
2022-12-25T11:49:50.068Z,25.80
2022-12-25T11:52:30.506Z,25.60
2022-12-25T11:55:17.457Z,22.90
2022-12-25T12:02:50.686Z,19.20
2022-12-25T12:06:12.316Z,21.20
2022-12-25T12:09:36.781Z,19.20
2022-12-25T12:12:18.457Z,22.10
2022-12-25T12:15:41.440Z,21.50
2022-12-25T12:18:48.155Z,18.30
2022-12-25T12:21:40.692Z,22.70
2022-12-25T12:24:19.408Z,36.60
2022-12-25T12:27:08.078Z,28.10
2022-12-25T12:34:59.593Z,33.00
2022-12-25T12:38:27.705Z,60.00
2022-12-25T12:41:15.492Z,34.00
2022-12-25T12:45:01.291Z,36.20
2022-12-25T12:47:42.841Z,53.20
2022-12-25T12:50:43.258Z,46.10
2022-12-25T12:53:32.224Z,30.70
2022-12-25T12:56:29.319Z,29.60
2022-12-25T12:59:50.507Z,26.30
2022-12-25T13:02:44.974Z,27.00
2022-12-25T13:06:34.153Z,34.80
2022-12-25T13:14:22.687Z,61.20
2022-12-25T13:17:01.992Z,40.50
2022-12-25T13:19:47.805Z,45.70
2022-12-25T13:23:32.268Z,47.00
2022-12-25T13:26:33.475Z,30.00
2022-12-25T13:29:53.547Z,21.30
2022-12-25T13:32:30.183Z,35.30
2022-12-25T13:35:19.370Z,66.10
2022-12-25T13:42:06.846Z,56.60
2022-12-25T13:44:46.636Z,36.60
2022-12-25T13:47:24.144Z,35.50
2022-12-25T13:55:08.812Z,34.70
2022-12-25T13:58:54.365Z,35.30
2022-12-25T14:01:29.374Z,25.80
2022-12-25T14:04:49.697Z,26.80
2022-12-25T14:16:59.105Z,43.20
2022-12-25T14:19:36.087Z,41.00
2022-12-25T14:22:21.630Z,53.30
2022-12-25T14:25:44.831Z,44.90
2022-12-25T14:28:32.548Z,46.20
2022-12-25T14:32:20.544Z,38.00
2022-12-25T14:34:58.373Z,15.70
2022-12-25T14:37:37.192Z,14.10
2022-12-25T14:41:00.644Z,17.30
2022-12-25T14:44:24.446Z,39.20
2022-12-25T14:47:17.789Z,31.10
2022-12-25T14:50:27.062Z,30.80
2022-12-25T14:53:50.710Z,39.40
2022-12-25T14:56:49.910Z,61.00
2022-12-25T15:00:14.930Z,34.50
2022-12-25T15:07:10.147Z,33.60
2022-12-25T15:11:00.979Z,33.60
2022-12-25T15:14:02.572Z,30.90
2022-12-25T15:17:02.149Z,34.00
2022-12-25T15:19:48.630Z,31.10
2022-12-25T15:22:47.758Z,41.80
2022-12-25T15:25:49.013Z,35.10
2022-12-25T15:29:00.250Z,64.70
2022-12-25T15:31:49.471Z,65.60
2022-12-25T15:34:30.142Z,48.70
2022-12-25T15:37:13.818Z,74.20
2022-12-25T15:39:52.230Z,73.90
2022-12-25T15:42:28.970Z,94.00
2022-12-25T15:45:02.981Z,110.30
2022-12-25T15:47:44.524Z,97.40
2022-12-25T15:50:22.471Z,284.90
2022-12-25T15:53:04.767Z,141.20
2022-12-25T15:55:49.486Z,79.00
2022-12-25T15:58:26.822Z,77.90
2022-12-25T16:01:04.705Z,82.80
2022-12-25T16:03:47.137Z,74.90
2022-12-25T16:06:22.275Z,44.60
2022-12-25T16:08:58.639Z,36.10
2022-12-25T16:11:34.187Z,66.40
2022-12-25T16:14:19.161Z,106.10
2022-12-25T16:16:55.676Z,81.10
2022-12-25T16:19:36.236Z,76.30
2022-12-25T16:24:50.641Z,52.40
2022-12-25T16:27:27.566Z,90.70
2022-12-25T16:34:46.574Z,57.70
2022-12-25T16:37:21.302Z,60.30
2022-12-25T16:40:19.536Z,62.10
2022-12-25T16:43:21.937Z,71.30
2022-12-25T16:46:24.684Z,103.40
2022-12-25T16:49:20.614Z,90.60
2022-12-25T16:51:57.229Z,95.10
2022-12-25T16:54:35.558Z,84.10
2022-12-25T16:57:16.724Z,78.80
2022-12-25T16:59:59.889Z,82.10
2022-12-25T17:02:45.096Z,75.40
2022-12-25T17:05:27.615Z,86.80
2022-12-25T17:08:01.813Z,70.00
2022-12-25T17:10:36.093Z,66.10
2022-12-25T17:13:13.644Z,87.30
2022-12-25T17:15:50.552Z,94.10
2022-12-25T17:18:24.208Z,67.80
2022-12-25T17:21:25.305Z,56.90
2022-12-25T17:24:04.733Z,61.50
2022-12-25T17:26:41.843Z,113.60
2022-12-25T17:29:47.434Z,75.30
2022-12-25T17:32:21.781Z,74.00
2022-12-25T17:34:54.879Z,54.60
2022-12-25T17:37:32.252Z,53.40
2022-12-25T17:40:11.113Z,85.80
2022-12-25T17:42:46.252Z,69.20
2022-12-25T17:45:22.582Z,59.80
2022-12-25T17:50:41.222Z,83.60
2022-12-25T17:53:18.796Z,77.70
2022-12-25T17:56:02.600Z,75.20
2022-12-25T17:58:36.995Z,68.60
2022-12-25T18:01:38.672Z,80.30
2022-12-25T18:04:16.688Z,82.70
2022-12-25T18:07:17.735Z,80.10
2022-12-25T18:09:50.499Z,87.40
2022-12-25T18:12:28.389Z,81.20
2022-12-25T18:15:04.653Z,71.40
2022-12-25T18:18:04.889Z,76.00
2022-12-25T18:21:04.219Z,77.80
2022-12-25T18:24:14.675Z,70.30
2022-12-25T18:27:14.879Z,74.90
2022-12-25T18:29:50.939Z,70.80
2022-12-25T18:32:51.411Z,74.40
2022-12-25T18:35:31.141Z,75.30
2022-12-25T18:38:04.603Z,75.50
2022-12-25T18:41:12.629Z,63.90
2022-12-25T18:43:53.807Z,69.40
2022-12-25T18:46:28.918Z,72.40
2022-12-25T18:49:54.035Z,70.80
2022-12-25T18:55:32.820Z,61.20
2022-12-25T18:58:22.781Z,61.80
2022-12-25T19:01:00.541Z,66.90
2022-12-25T19:03:36.511Z,67.90
2022-12-25T19:08:55.044Z,63.00
2022-12-25T19:11:30.408Z,68.80
2022-12-25T19:14:11.970Z,74.50
2022-12-25T19:16:49.523Z,77.00
2022-12-25T19:19:25.213Z,78.40
2022-12-25T19:22:06.380Z,66.00
2022-12-25T19:24:48.677Z,65.80
2022-12-25T19:27:51.272Z,59.50
2022-12-25T19:30:29.632Z,75.00
2022-12-25T19:33:08.151Z,78.30
2022-12-25T19:35:50.941Z,70.90
2022-12-25T19:38:24.526Z,76.00
2022-12-25T19:41:07.270Z,62.90
2022-12-25T19:43:47.778Z,57.40
2022-12-25T19:46:24.478Z,64.80
2022-12-25T19:49:53.206Z,60.10
2022-12-25T19:52:26.493Z,54.60
2022-12-25T19:55:23.790Z,53.80
2022-12-25T19:58:23.469Z,61.00
2022-12-25T20:01:22.692Z,59.10
2022-12-25T20:03:56.535Z,49.90
2022-12-25T20:06:35.165Z,50.10
2022-12-25T20:09:33.170Z,55.80
2022-12-25T20:12:53.205Z,62.30
2022-12-25T20:15:26.100Z,57.30
2022-12-25T20:18:46.446Z,66.40
2022-12-25T20:21:24.412Z,61.90
2022-12-25T20:24:03.812Z,66.20
2022-12-25T20:27:24.754Z,59.90
2022-12-25T20:30:06.271Z,60.60
2022-12-25T20:33:49.111Z,56.20
2022-12-25T20:36:51.585Z,102.00
2022-12-25T20:39:50.182Z,103.00
2022-12-25T20:42:23.566Z,57.30
2022-12-25T20:46:16.449Z,57.40
2022-12-25T20:48:51.993Z,66.00
2022-12-25T20:51:29.044Z,66.50
2022-12-25T20:54:28.150Z,70.60
2022-12-25T20:57:02.375Z,68.20
2022-12-25T20:59:38.773Z,75.90
2022-12-25T21:02:38.150Z,87.70
2022-12-25T21:05:21.253Z,70.80
2022-12-25T21:08:24.918Z,70.60
2022-12-25T21:11:02.890Z,58.00
2022-12-25T21:13:40.381Z,54.20
2022-12-25T21:17:00.803Z,64.60
2022-12-25T21:20:00.571Z,62.90
2022-12-25T21:26:59.367Z,57.90
2022-12-25T21:34:52.799Z,74.30
2022-12-25T21:38:13.770Z,61.20
2022-12-25T21:41:23.049Z,81.40
2022-12-25T21:44:03.508Z,93.70
2022-12-25T21:47:25.542Z,90.90
2022-12-25T21:51:01.081Z,69.70
2022-12-25T21:54:01.339Z,72.60
2022-12-25T21:56:57.513Z,65.50
2022-12-25T21:59:56.703Z,71.20
2022-12-25T22:03:42.523Z,69.10
2022-12-25T22:11:04.963Z,68.00
2022-12-25T22:14:51.999Z,76.10
2022-12-25T22:17:41.645Z,62.60
2022-12-25T22:21:30.199Z,54.20
2022-12-25T22:24:34.618Z,46.80
2022-12-25T22:28:19.381Z,59.70
2022-12-25T22:31:16.805Z,55.10
2022-12-25T22:34:37.771Z,52.30
2022-12-25T22:37:59.027Z,52.40
2022-12-25T22:40:57.506Z,47.20
2022-12-25T22:44:15.845Z,44.50
2022-12-25T22:47:27.753Z,41.10
2022-12-25T22:51:00.188Z,41.00
2022-12-25T22:54:45.485Z,38.60
2022-12-25T22:58:06.043Z,38.50
2022-12-25T23:01:52.578Z,39.20
2022-12-25T23:09:20.467Z,43.10
2022-12-25T23:16:22.079Z,39.60
2022-12-25T23:19:41.250Z,29.90
2022-12-25T23:23:23.515Z,31.40
2022-12-25T23:26:22.939Z,33.70
2022-12-25T23:29:51.944Z,34.90
2022-12-25T23:33:34.663Z,39.50
2022-12-25T23:44:50.092Z,35.50
2022-12-25T23:48:11.888Z,32.00
2022-12-25T23:51:21.393Z,34.80
2022-12-25T23:54:43.925Z,39.60
2022-12-25T23:57:45.415Z,41.90
